Time;durP1;ratioP1;P1;durP2;ratioP2;P2;SDS_P1;SDS_P2;PMS_P1;PMS_P2;Temp;Humidity;BMP_temperature;BMP_pressure;BME280_temperature;BME280_humidity;BME280_pressure;Samples;Min_cycle;Max_cycle;Signal;HPM_P1;HPM_P2
2023/07/18 00:00:42;;;;;;;15.15;5.20;;;14.40;99.90;;;;;;5030415;28;20495;-84
2023/07/18 00:03:08;;;;;;;17.73;5.85;;;14.40;99.90;;;;;;5032294;28;20072;-85
2023/07/18 00:05:36;;;;;;;16.98;5.20;;;14.40;99.90;;;;;;5047406;28;20053;-85
2023/07/18 00:08:01;;;;;;;13.88;5.10;;;14.40;99.90;;;;;;5049569;28;20053;-85
2023/07/18 00:10:27;;;;;;;14.00;4.97;;;14.30;99.90;;;;;;5064381;28;20128;-85
2023/07/18 00:12:53;;;;;;;17.15;5.57;;;14.30;99.90;;;;;;5047005;28;20040;-85
2023/07/18 00:15:19;;;;;;;15.63;4.88;;;14.30;99.90;;;;;;5047847;28;20124;-85
2023/07/18 00:17:45;;;;;;;17.58;4.78;;;14.30;99.90;;;;;;5063718;28;20037;-85
2023/07/18 00:20:13;;;;;;;19.80;5.07;;;14.30;99.90;;;;;;5047781;28;20041;-86
2023/07/18 00:22:47;;;;;;;15.55;3.92;;;14.30;99.90;;;;;;5047957;28;20502;-85
2023/07/18 00:25:16;;;;;;;21.95;4.30;;;14.30;99.90;;;;;;5047562;28;20047;-85
2023/07/18 00:27:45;;;;;;;13.73;3.83;;;14.30;99.90;;;;;;5063274;28;20132;-85
2023/07/18 00:30:14;;;;;;;15.90;3.83;;;14.30;99.90;;;;;;5046104;28;20076;-85
2023/07/18 00:32:44;;;;;;;13.07;3.80;;;14.30;99.90;;;;;;5046128;28;20080;-85
2023/07/18 00:35:14;;;;;;;13.77;3.67;;;14.20;99.90;;;;;;5048183;28;20068;-85
2023/07/18 00:37:41;;;;;;;11.00;3.40;;;14.20;99.90;;;;;;5047113;28;20049;-85
2023/07/18 00:40:10;;;;;;;15.35;3.83;;;14.20;99.90;;;;;;5062758;28;20052;-85
2023/07/18 00:42:41;;;;;;;19.88;4.20;;;14.10;99.90;;;;;;5046342;28;20324;-85
2023/07/18 00:45:08;;;;;;;18.83;4.30;;;14.10;99.90;;;;;;5049254;28;20049;-86
2023/07/18 00:47:37;;;;;;;22.17;4.47;;;14.10;99.90;;;;;;5046925;28;20090;-85
2023/07/18 00:50:16;;;;;;;17.73;4.25;;;14.10;99.90;;;;;;5081425;28;20053;-85
2023/07/18 00:52:50;;;;;;;17.48;3.95;;;14.10;99.90;;;;;;5080584;28;20029;-85
2023/07/18 00:55:17;;;;;;;18.83;5.25;;;14.10;99.90;;;;;;5080468;28;20060;-85
2023/07/18 00:57:45;;;;;;;16.88;4.38;;;14.10;99.90;;;;;;5063247;28;20067;-85
2023/07/18 01:00:12;;;;;;;18.77;5.60;;;14.10;99.90;;;;;;5047366;28;20041;-85
2023/07/18 01:02:42;;;;;;;19.75;6.40;;;14.10;99.90;;;;;;5063841;28;20869;-85
2023/07/18 01:05:09;;;;;;;19.45;5.70;;;14.20;99.90;;;;;;5080828;28;20071;-85
2023/07/18 01:07:35;;;;;;;14.43;5.10;;;14.10;99.90;;;;;;5046216;28;20044;-85
2023/07/18 01:10:13;;;;;;;20.33;5.30;;;14.10;99.90;;;;;;5047171;28;20059;-85
2023/07/18 01:12:39;;;;;;;22.35;5.88;;;14.10;99.90;;;;;;5079470;28;20531;-85
2023/07/18 01:15:05;;;;;;;17.08;5.00;;;14.10;99.90;;;;;;5066703;28;20072;-85
2023/07/18 01:17:31;;;;;;;14.95;5.10;;;14.10;99.90;;;;;;5063048;28;20096;-85
2023/07/18 01:19:58;;;;;;;18.55;5.90;;;14.10;99.90;;;;;;5062992;28;20045;-85
2023/07/18 01:22:23;;;;;;;17.45;5.38;;;14.00;99.90;;;;;;5062951;28;20040;-85
2023/07/18 01:24:49;;;;;;;15.98;4.88;;;14.00;99.90;;;;;;5063137;28;20492;-85
2023/07/18 01:27:15;;;;;;;17.25;5.30;;;14.00;99.90;;;;;;5047574;28;20488;-86
2023/07/18 01:29:40;;;;;;;14.20;5.88;;;14.00;99.90;;;;;;5062088;28;20188;-85
2023/07/18 01:32:06;;;;;;;15.77;5.85;;;14.00;99.90;;;;;;5046109;28;20121;-85
2023/07/18 01:34:34;;;;;;;19.20;6.20;;;14.00;99.90;;;;;;5047030;28;20486;-85
2023/07/18 01:37:00;;;;;;;19.25;6.97;;;14.00;99.90;;;;;;5045701;28;20033;-85
2023/07/18 01:39:26;;;;;;;18.13;6.18;;;13.90;99.90;;;;;;5045287;28;20049;-85
2023/07/18 01:41:52;;;;;;;14.35;5.55;;;13.90;99.90;;;;;;5062668;28;20183;-85
2023/07/18 01:44:18;;;;;;;15.25;5.10;;;13.90;99.90;;;;;;5045590;28;20556;-85
2023/07/18 01:46:44;;;;;;;17.35;5.38;;;13.80;99.90;;;;;;5062807;28;20033;-85
2023/07/18 01:49:11;;;;;;;21.35;5.07;;;13.80;99.90;;;;;;5047143;28;20408;-85
2023/07/18 01:51:37;;;;;;;20.65;5.47;;;13.80;99.90;;;;;;5062566;28;20045;-85
2023/07/18 01:54:03;;;;;;;29.42;5.28;;;13.80;99.90;;;;;;5063310;28;20049;-85
2023/07/18 01:56:29;;;;;;;17.98;4.90;;;13.80;99.90;;;;;;5028055;28;20051;-85
2023/07/18 01:58:55;;;;;;;14.65;5.30;;;13.80;99.90;;;;;;5046305;28;20049;-85
2023/07/18 02:01:20;;;;;;;21.55;5.40;;;13.90;99.90;;;;;;5045200;28;20147;-85
2023/07/18 02:03:46;;;;;;;16.83;5.32;;;13.80;99.90;;;;;;5061257;28;20109;-85
2023/07/18 02:06:12;;;;;;;21.27;5.47;;;13.80;99.90;;;;;;5029877;28;20119;-85
2023/07/18 02:08:38;;;;;;;25.25;5.63;;;13.80;99.90;;;;;;5078408;28;20076;-85
2023/07/18 02:11:04;;;;;;;21.40;5.43;;;13.80;99.90;;;;;;5045176;28;20424;-85
2023/07/18 02:13:30;;;;;;;19.67;5.03;;;13.90;99.90;;;;;;5029037;28;20043;-86
2023/07/18 02:15:55;;;;;;;22.05;5.00;;;13.90;99.90;;;;;;5045201;28;20045;-86
2023/07/18 02:18:21;;;;;;;23.70;5.75;;;13.90;99.90;;;;;;5061577;28;20106;-85
2023/07/18 02:20:47;;;;;;;19.55;5.13;;;13.90;99.90;;;;;;5028933;28;20043;-85
2023/07/18 02:23:12;;;;;;;23.00;5.20;;;13.90;99.90;;;;;;5047740;28;20045;-86
2023/07/18 02:25:38;;;;;;;18.60;5.18;;;13.90;99.90;;;;;;5060609;28;20356;-86
2023/07/18 02:28:04;;;;;;;17.10;4.38;;;13.90;99.90;;;;;;5062539;28;20057;-85
2023/07/18 02:30:30;;;;;;;24.10;5.85;;;13.90;99.90;;;;;;5062118;28;20136;-86
2023/07/18 02:32:57;;;;;;;25.15;5.32;;;13.90;99.90;;;;;;5078068;28;20488;-85
2023/07/18 02:35:23;;;;;;;18.15;5.32;;;13.90;99.90;;;;;;5062739;28;20460;-85
2023/07/18 02:37:49;;;;;;;23.70;6.82;;;13.90;99.90;;;;;;5049830;28;20116;-85
2023/07/18 02:40:17;;;;;;;18.02;6.32;;;13.90;99.90;;;;;;5046584;28;20507;-85
2023/07/18 02:42:42;;;;;;;19.52;5.47;;;13.90;99.90;;;;;;5061406;28;20128;-86
2023/07/18 02:45:09;;;;;;;18.45;5.35;;;13.90;99.90;;;;;;5062471;28;20132;-85
2023/07/18 02:47:34;;;;;;;22.23;6.00;;;13.90;99.90;;;;;;5044747;28;20349;-86
2023/07/18 02:50:00;;;;;;;22.08;6.03;;;13.90;99.90;;;;;;5044964;28;20044;-86
2023/07/18 02:52:26;;;;;;;21.73;6.03;;;13.90;99.90;;;;;;5046606;28;20041;-85
2023/07/18 02:54:51;;;;;;;17.75;6.35;;;13.90;99.90;;;;;;5061867;28;20400;-86
2023/07/18 02:57:17;;;;;;;16.52;5.50;;;13.90;99.90;;;;;;5044901;28;20037;-86
2023/07/18 02:59:44;;;;;;;16.92;6.32;;;13.80;99.90;;;;;;5061579;28;20095;-86
2023/07/18 03:02:10;;;;;;;21.90;7.32;;;13.80;99.90;;;;;;5044845;28;20091;-85
2023/07/18 03:04:36;;;;;;;18.67;7.18;;;13.80;99.90;;;;;;5045997;28;20045;-86
2023/07/18 03:07:03;;;;;;;18.67;7.47;;;13.70;99.90;;;;;;5027530;28;20043;-85
2023/07/18 03:09:32;;;;;;;16.77;6.68;;;13.70;99.90;;;;;;5029046;28;20053;-85
2023/07/18 03:11:58;;;;;;;16.98;6.45;;;13.70;99.90;;;;;;5044755;28;20544;-86
2023/07/18 03:14:24;;;;;;;16.52;5.82;;;13.60;99.90;;;;;;5028287;28;20491;-85
2023/07/18 03:16:50;;;;;;;17.35;6.07;;;13.40;99.90;;;;;;5043903;28;20037;-86
2023/07/18 03:19:15;;;;;;;14.40;5.43;;;13.40;99.90;;;;;;5045550;28;20060;-85
2023/07/18 03:21:43;;;;;;;13.30;4.55;;;13.30;99.90;;;;;;5043737;28;20049;-85
2023/07/18 03:24:09;;;;;;;10.00;4.85;;;13.30;99.90;;;;;;5045659;28;20049;-85
2023/07/18 03:26:38;;;;;;;15.05;4.97;;;13.30;99.90;;;;;;5044517;28;20040;-86
2023/07/18 03:29:05;;;;;;;10.98;4.13;;;13.20;99.90;;;;;;5032021;28;20064;-86
2023/07/18 03:31:32;;;;;;;9.75;3.78;;;13.20;99.90;;;;;;5047820;28;20044;-86
2023/07/18 03:33:57;;;;;;;12.25;3.92;;;13.20;99.90;;;;;;5032495;28;20426;-86
2023/07/18 03:36:23;;;;;;;14.63;4.80;;;13.20;99.90;;;;;;5033816;28;20037;-86
2023/07/18 03:38:49;;;;;;;17.65;4.88;;;13.20;99.90;;;;;;5032720;28;20099;-86
2023/07/18 03:41:14;;;;;;;24.75;5.65;;;13.10;99.90;;;;;;5031733;28;20045;-86
2023/07/18 03:43:40;;;;;;;19.45;5.32;;;13.20;99.90;;;;;;5049290;28;20075;-86
2023/07/18 03:46:06;;;;;;;23.98;6.05;;;13.30;99.90;;;;;;5082024;28;20080;-86
2023/07/18 03:48:31;;;;;;;22.55;6.20;;;13.40;99.90;;;;;;5048445;28;20048;-86
2023/07/18 03:50:57;;;;;;;26.48;6.43;;;13.40;99.90;;;;;;5048204;28;20549;-86
2023/07/18 03:53:23;;;;;;;19.45;6.40;;;13.50;99.90;;;;;;5048647;28;20037;-86
2023/07/18 03:55:49;;;;;;;19.75;5.85;;;13.50;99.90;;;;;;5047613;28;20152;-86
2023/07/18 03:58:14;;;;;;;26.30;5.68;;;13.50;99.90;;;;;;5043301;28;20405;-86
2023/07/18 04:00:40;;;;;;;20.55;5.28;;;13.50;99.90;;;;;;5030976;28;20083;-87
2023/07/18 04:03:06;;;;;;;12.32;4.32;;;13.50;99.90;;;;;;5048346;28;20045;-86
2023/07/18 04:05:31;;;;;;;17.90;4.75;;;13.50;99.90;;;;;;5048186;28;20054;-86
2023/07/18 04:07:57;;;;;;;17.50;5.07;;;13.60;99.90;;;;;;5048744;28;20662;-86
2023/07/18 04:10:23;;;;;;;12.30;4.45;;;13.60;99.90;;;;;;5047944;28;20566;-86
2023/07/18 04:12:48;;;;;;;19.45;5.00;;;13.50;99.90;;;;;;5048294;28;20048;-86
2023/07/18 04:15:14;;;;;;;17.08;5.40;;;13.50;99.90;;;;;;5049600;28;20076;-86
2023/07/18 04:17:40;;;;;;;26.48;6.13;;;13.50;99.90;;;;;;5080637;28;20134;-86
2023/07/18 04:20:07;;;;;;;16.95;5.75;;;13.50;99.90;;;;;;5064769;28;20091;-86
2023/07/18 04:22:32;;;;;;;17.67;5.43;;;13.60;99.90;;;;;;5049864;28;20045;-86
2023/07/18 04:24:58;;;;;;;25.48;6.25;;;13.70;99.90;;;;;;5030454;28;20049;-86
2023/07/18 04:27:26;;;;;;;21.98;6.93;;;13.80;99.90;;;;;;5030959;28;20053;-86
2023/07/18 04:29:53;;;;;;;19.55;6.97;;;13.80;99.90;;;;;;5064699;28;20293;-86
2023/07/18 04:32:19;;;;;;;23.08;6.95;;;13.90;99.90;;;;;;5063475;28;20055;-86
2023/07/18 04:34:47;;;;;;;23.90;7.03;;;14.00;99.90;;;;;;5064509;28;20052;-86
2023/07/18 04:37:13;;;;;;;20.67;6.57;;;14.00;99.90;;;;;;5064774;28;20045;-86
2023/07/18 04:39:38;;;;;;;17.88;6.03;;;14.10;99.90;;;;;;5063690;28;20139;-86
2023/07/18 04:42:04;;;;;;;24.25;6.65;;;14.20;99.90;;;;;;5081152;28;20049;-85
2023/07/18 04:44:31;;;;;;;17.60;6.72;;;14.20;99.90;;;;;;5032945;28;20072;-86
2023/07/18 04:46:57;;;;;;;24.95;7.82;;;14.30;99.90;;;;;;5078442;28;20029;-86
2023/07/18 04:49:24;;;;;;;26.33;6.68;;;14.40;99.90;;;;;;5028865;28;20071;-86
2023/07/18 04:51:51;;;;;;;24.48;6.18;;;14.40;99.90;;;;;;5029053;28;20047;-86
2023/07/18 04:54:18;;;;;;;20.92;6.50;;;14.50;99.90;;;;;;5028143;28;20032;-86
2023/07/18 04:56:43;;;;;;;23.85;7.05;;;14.60;99.90;;;;;;5045261;28;20079;-87
2023/07/18 04:59:09;;;;;;;21.27;6.97;;;14.60;99.90;;;;;;5045798;28;20111;-86
2023/07/18 05:01:36;;;;;;;18.38;5.47;;;14.70;99.90;;;;;;5045637;28;20053;-86
2023/07/18 05:04:02;;;;;;;24.08;6.07;;;14.70;99.90;;;;;;5029211;28;20488;-86
2023/07/18 05:06:28;;;;;;;22.17;5.70;;;14.70;99.90;;;;;;5078238;28;20352;-86
2023/07/18 05:08:54;;;;;;;17.60;6.25;;;14.80;99.90;;;;;;5079366;28;20082;-86
2023/07/18 05:11:19;;;;;;;19.48;5.43;;;14.80;99.90;;;;;;5078040;28;20103;-86
2023/07/18 05:13:45;;;;;;;22.80;5.85;;;14.90;99.90;;;;;;5077583;28;20185;-86
2023/07/18 05:16:11;;;;;;;18.48;6.10;;;14.90;99.90;;;;;;5045824;28;20043;-86
2023/07/18 05:18:37;;;;;;;15.00;4.88;;;15.00;99.90;;;;;;5048250;28;20041;-86
2023/07/18 05:21:02;;;;;;;23.55;6.13;;;15.00;99.90;;;;;;5048094;28;20109;-86
2023/07/18 05:23:28;;;;;;;18.30;5.75;;;15.00;99.90;;;;;;5047302;28;20071;-86
2023/07/18 05:25:56;;;;;;;21.15;5.80;;;15.10;99.90;;;;;;5048048;28;20079;-86
2023/07/18 05:28:22;;;;;;;19.70;5.88;;;15.10;99.90;;;;;;5046153;28;20115;-86
2023/07/18 05:30:48;;;;;;;16.60;5.47;;;15.20;99.90;;;;;;5045667;28;20215;-86
2023/07/18 05:33:14;;;;;;;20.70;6.00;;;15.30;99.90;;;;;;5063593;28;20135;-86
2023/07/18 05:35:40;;;;;;;17.67;5.50;;;15.40;99.90;;;;;;5061645;28;20144;-86
2023/07/18 05:38:06;;;;;;;22.38;6.55;;;15.50;99.90;;;;;;5043751;28;20038;-86
2023/07/18 05:40:32;;;;;;;22.90;5.63;;;15.60;99.90;;;;;;5061397;28;20051;-86
2023/07/18 05:42:57;;;;;;;20.80;6.32;;;15.70;99.90;;;;;;5045617;28;20040;-86
2023/07/18 05:45:23;;;;;;;21.95;5.78;;;15.80;99.90;;;;;;5063087;28;20040;-86
2023/07/18 05:47:49;;;;;;;23.48;5.30;;;15.80;99.90;;;;;;5079710;28;20523;-86
2023/07/18 05:50:15;;;;;;;22.08;5.85;;;15.80;99.90;;;;;;5079081;28;20103;-86
2023/07/18 05:52:40;;;;;;;15.63;5.85;;;15.80;99.90;;;;;;5062748;28;20037;-86
2023/07/18 05:55:07;;;;;;;27.15;5.72;;;15.80;99.90;;;;;;5080070;28;20090;-85
2023/07/18 05:57:33;;;;;;;20.73;6.13;;;15.70;99.90;;;;;;5061802;28;20073;-85
2023/07/18 05:59:59;;;;;;;23.10;5.60;;;15.70;99.90;;;;;;5062849;28;20088;-86
2023/07/18 06:02:24;;;;;;;17.63;5.75;;;15.70;99.90;;;;;;5028446;28;20407;-86
2023/07/18 06:04:50;;;;;;;19.95;5.70;;;15.80;99.90;;;;;;5063216;28;20049;-85
2023/07/18 06:07:16;;;;;;;17.50;5.28;;;15.80;99.90;;;;;;5046129;28;20120;-86
2023/07/18 06:09:42;;;;;;;24.20;5.82;;;15.90;99.90;;;;;;5062020;28;20041;-86
2023/07/18 06:12:09;;;;;;;24.00;5.97;;;15.90;99.90;;;;;;5062071;28;20388;-86
2023/07/18 06:14:35;;;;;;;21.25;5.68;;;16.00;99.90;;;;;;5079605;28;20106;-85
2023/07/18 06:17:01;;;;;;;21.42;5.72;;;16.00;99.90;;;;;;5028041;28;20040;-86
2023/07/18 06:19:27;;;;;;;19.35;5.90;;;16.20;99.90;;;;;;5079184;28;20443;-85
2023/07/18 06:21:53;;;;;;;23.33;5.50;;;16.30;99.90;;;;;;5059333;28;20094;-85
2023/07/18 06:24:19;;;;;;;20.50;5.60;;;16.50;99.90;;;;;;5062266;28;20131;-85
2023/07/18 06:26:48;;;;;;;24.85;6.15;;;16.80;99.90;;;;;;5062190;28;20048;-85
2023/07/18 06:29:19;;;;;;;16.83;5.57;;;16.90;99.90;;;;;;5046831;28;20081;-85
2023/07/18 06:31:47;;;;;;;16.67;5.32;;;17.10;99.90;;;;;;5044355;28;20037;-86
2023/07/18 06:34:12;;;;;;;15.93;5.80;;;17.10;99.90;;;;;;5047027;28;20144;-86
2023/07/18 06:36:38;;;;;;;25.40;6.28;;;17.00;99.90;;;;;;5078818;28;20940;-86
2023/07/18 06:39:07;;;;;;;20.38;5.55;;;17.10;99.90;;;;;;5071451;28;20047;-86
2023/07/18 06:41:33;;;;;;;23.33;6.38;;;17.20;99.90;;;;;;5047459;28;20045;-86
2023/07/18 06:43:59;;;;;;;18.95;6.10;;;17.40;99.90;;;;;;5042781;28;20132;-84
2023/07/18 06:46:24;;;;;;;28.08;7.20;;;17.50;99.90;;;;;;5052810;28;20128;-83
2023/07/18 06:48:52;;;;;;;16.90;5.40;;;17.50;99.90;;;;;;5034848;28;20063;-85
2023/07/18 06:51:18;;;;;;;24.15;5.75;;;17.50;99.90;;;;;;5041878;28;20045;-83
2023/07/18 06:53:44;;;;;;;18.73;6.00;;;17.50;99.90;;;;;;5058911;28;20111;-82
2023/07/18 06:56:09;;;;;;;22.45;5.50;;;17.50;99.90;;;;;;5042524;28;20045;-88
2023/07/18 06:58:38;;;;;;;22.75;5.78;;;17.60;99.90;;;;;;5040921;28;20052;-87
2023/07/18 07:01:03;;;;;;;22.80;5.95;;;17.70;99.90;;;;;;5044551;28;20045;-88
2023/07/18 07:03:29;;;;;;;20.58;5.95;;;17.80;99.90;;;;;;5081456;28;20052;-88
2023/07/18 07:05:58;;;;;;;22.35;5.80;;;18.00;99.90;;;;;;5030644;28;20601;-90
2023/07/18 07:08:24;;;;;;;21.15;6.22;;;18.10;99.90;;;;;;5052276;28;20053;-86
2023/07/18 07:10:53;;;;;;;20.90;5.90;;;18.10;99.90;;;;;;5047683;28;20048;-86
2023/07/18 07:13:19;;;;;;;24.02;5.63;;;18.10;99.90;;;;;;5057640;28;20053;-87
2023/07/18 07:15:46;;;;;;;23.20;6.10;;;18.10;99.90;;;;;;5037470;28;20466;-85
2023/07/18 07:18:12;;;;;;;26.20;6.53;;;18.20;99.90;;;;;;5044456;28;20107;-86
2023/07/18 07:20:38;;;;;;;22.42;6.50;;;18.40;99.90;;;;;;5046859;28;20576;-87
2023/07/18 07:23:04;;;;;;;19.65;6.50;;;18.50;99.90;;;;;;5063807;28;20143;-87
2023/07/18 07:25:31;;;;;;;21.42;6.10;;;18.60;99.90;;;;;;5046698;28;20576;-87
2023/07/18 07:27:57;;;;;;;23.52;6.60;;;18.80;99.90;;;;;;5029201;28;20048;-86
2023/07/18 07:30:23;;;;;;;25.80;6.68;;;19.00;99.90;;;;;;5080471;28;20497;-86
2023/07/18 07:32:53;;;;;;;26.17;6.30;;;19.20;99.90;;;;;;5063360;28;20055;-87
2023/07/18 07:35:19;;;;;;;23.38;6.50;;;19.30;99.90;;;;;;5030231;28;20049;-86
2023/07/18 07:37:50;;;;;;;22.30;6.57;;;19.40;99.90;;;;;;5062692;28;20033;-86
2023/07/18 07:40:16;;;;;;;22.45;6.50;;;19.50;99.90;;;;;;5045051;28;20147;-86
2023/07/18 07:42:44;;;;;;;22.63;6.20;;;19.60;99.90;;;;;;5046469;28;20095;-86
2023/07/18 07:45:10;;;;;;;24.15;5.72;;;19.60;99.90;;;;;;5080275;28;20049;-85
2023/07/18 07:47:36;;;;;;;20.88;6.38;;;19.60;99.90;;;;;;5064539;28;20461;-86
2023/07/18 07:50:04;;;;;;;20.70;5.78;;;19.50;99.90;;;;;;5031591;28;20040;-86
2023/07/18 07:52:30;;;;;;;20.20;5.40;;;19.40;99.90;;;;;;5048088;28;20044;-86
2023/07/18 07:54:56;;;;;;;20.15;5.15;;;19.30;99.90;;;;;;5063995;28;20045;-86
2023/07/18 07:57:22;;;;;;;15.90;4.85;;;19.30;99.90;;;;;;5079606;28;20506;-86
2023/07/18 07:59:48;;;;;;;21.60;4.85;;;19.40;99.90;;;;;;5062866;28;20040;-85
2023/07/18 08:02:14;;;;;;;17.77;4.35;;;19.50;99.90;;;;;;5078903;28;20044;-86
2023/07/18 08:04:41;;;;;;;20.10;5.18;;;19.70;99.90;;;;;;5079887;28;20083;-85
2023/07/18 08:07:10;;;;;;;22.75;4.22;;;19.80;99.90;;;;;;5047903;28;20052;-86
2023/07/18 08:09:36;;;;;;;21.70;4.50;;;20.00;99.90;;;;;;5079726;28;20037;-86
2023/07/18 08:12:03;;;;;;;17.23;4.28;;;20.30;99.90;;;;;;5081546;28;20053;-85
2023/07/18 08:14:29;;;;;;;14.57;3.83;;;20.60;99.90;;;;;;5081075;28;20356;-86
2023/07/18 08:16:55;;;;;;;20.50;4.35;;;20.80;99.90;;;;;;5079936;28;20045;-86
2023/07/18 08:19:22;;;;;;;11.93;3.20;;;21.10;99.90;;;;;;5055786;28;20480;-86
2023/07/18 08:21:48;;;;;;;13.20;2.67;;;21.40;99.90;;;;;;5027818;28;20037;-86
2023/07/18 08:24:14;;;;;;;11.20;2.65;;;21.50;99.90;;;;;;5064332;28;20516;-86
2023/07/18 08:26:40;;;;;;;13.02;2.72;;;21.50;99.90;;;;;;5080489;28;20076;-85
2023/07/18 08:29:06;;;;;;;9.70;2.22;;;21.50;99.90;;;;;;5064353;28;20085;-86
2023/07/18 08:31:32;;;;;;;17.40;2.65;;;21.50;99.90;;;;;;5079556;28;20051;-86
2023/07/18 08:33:58;;;;;;;14.38;2.50;;;21.50;99.90;;;;;;5064208;28;20045;-86
2023/07/18 08:36:25;;;;;;;13.20;2.28;;;21.50;99.90;;;;;;5064088;28;20041;-86
2023/07/18 08:38:51;;;;;;;16.73;3.10;;;21.50;99.90;;;;;;5080750;28;20033;-86
2023/07/18 08:41:21;;;;;;;13.27;2.75;;;21.60;99.90;;;;;;5080003;28;20404;-86
2023/07/18 08:43:48;;;;;;;12.50;3.03;;;21.70;99.90;;;;;;5081465;28;20104;-86
2023/07/18 08:46:15;;;;;;;9.20;1.90;;;21.80;99.90;;;;;;5062544;28;20098;-86
2023/07/18 08:48:45;;;;;;;10.65;2.30;;;22.00;99.90;;;;;;5047536;28;20286;-86
2023/07/18 08:51:12;;;;;;;12.23;2.35;;;21.80;99.90;;;;;;5046233;28;20511;-86
2023/07/18 08:53:47;;;;;;;13.55;2.30;;;21.70;99.90;;;;;;5047570;28;20051;-86
2023/07/18 08:56:13;;;;;;;13.52;2.22;;;21.70;99.90;;;;;;5063935;28;20049;-86
2023/07/18 08:58:38;;;;;;;14.00;2.28;;;21.80;99.90;;;;;;5063308;28;20288;-86
2023/07/18 09:01:06;;;;;;;10.10;2.10;;;21.70;99.90;;;;;;5046632;28;20571;-86
2023/07/18 09:03:32;;;;;;;11.30;2.33;;;21.80;99.90;;;;;;5030764;28;20076;-86
2023/07/18 09:06:17;;;;;;;13.65;2.30;;;22.00;99.90;;;;;;5045957;28;20072;-85
2023/07/18 09:08:43;;;;;;;13.88;1.80;;;22.30;99.90;;;;;;5079724;28;20094;-86
2023/07/18 09:11:12;;;;;;;7.88;1.75;;;22.50;99.90;;;;;;5030071;28;20053;-86
2023/07/18 09:13:39;;;;;;;10.15;1.88;;;22.70;99.90;;;;;;5061851;28;20044;-85
2023/07/18 09:16:22;;;;;;;7.60;1.60;;;22.60;99.90;;;;;;5062995;28;20384;-86
2023/07/18 09:18:49;;;;;;;13.40;2.00;;;22.40;99.90;;;;;;5080487;28;20079;-86
2023/07/18 09:21:15;;;;;;;9.90;1.85;;;22.10;99.90;;;;;;5062547;28;20059;-86
2023/07/18 09:23:42;;;;;;;13.48;2.10;;;21.90;99.90;;;;;;5030049;28;20120;-86
2023/07/18 09:26:16;;;;;;;9.73;1.85;;;21.90;99.90;;;;;;5047829;28;20048;-86
2023/07/18 09:28:42;;;;;;;8.40;1.77;;;22.00;99.90;;;;;;5029623;28;20152;-85
2023/07/18 09:31:22;;;;;;;8.90;1.85;;;22.30;99.90;;;;;;5062701;28;20045;-85
2023/07/18 09:33:50;;;;;;;11.02;1.92;;;22.50;99.90;;;;;;5046020;28;20033;-85
2023/07/18 09:36:21;;;;;;;8.18;1.17;;;22.80;99.90;;;;;;5046530;28;20072;-85
2023/07/18 09:38:48;;;;;;;11.13;1.98;;;23.10;99.90;;;;;;5046548;28;20128;-86
2023/07/18 09:41:22;;;;;;;9.73;2.10;;;23.10;99.90;;;;;;5028481;28;20049;-86
2023/07/18 09:43:48;;;;;;;6.90;1.42;;;23.20;99.90;;;;;;5047498;28;20041;-85
2023/07/18 09:46:16;;;;;;;9.60;1.92;;;23.40;99.90;;;;;;5049580;28;20051;-85
2023/07/18 09:48:45;;;;;;;10.02;1.33;;;23.50;99.90;;;;;;5046392;28;20124;-86
2023/07/18 09:51:16;;;;;;;8.85;1.63;;;23.70;99.90;;;;;;5063096;28;20033;-85
2023/07/18 09:53:46;;;;;;;9.30;1.77;;;23.80;99.90;;;;;;5047479;28;20040;-86
2023/07/18 09:56:14;;;;;;;10.00;1.83;;;23.80;99.90;;;;;;5078747;28;20161;-86
2023/07/18 09:58:42;;;;;;;9.32;2.00;;;23.80;99.90;;;;;;5062203;28;20134;-87
2023/07/18 10:01:19;;;;;;;7.85;1.60;;;23.80;99.90;;;;;;5079553;28;20090;-87
2023/07/18 10:03:46;;;;;;;11.75;2.00;;;23.60;99.90;;;;;;5062600;28;20107;-87
2023/07/18 10:06:13;;;;;;;9.55;1.88;;;23.30;99.90;;;;;;5063314;28;20041;-87
2023/07/18 10:08:40;;;;;;;9.05;2.00;;;23.00;99.90;;;;;;5044952;28;20255;-87
2023/07/18 10:11:09;;;;;;;12.65;2.42;;;22.80;99.90;;;;;;5079697;28;20041;-87
2023/07/18 10:13:42;;;;;;;12.13;2.00;;;22.80;99.90;;;;;;5029089;28;20175;-88
2023/07/18 10:16:13;;;;;;;11.15;2.00;;;22.90;99.90;;;;;;5014479;28;20055;-87
2023/07/18 10:18:47;;;;;;;8.20;1.92;;;23.20;99.90;;;;;;5029678;28;20572;-86
2023/07/18 10:21:35;;;;;;;9.73;1.92;;;23.40;99.90;;;;;;5045914;28;20083;-87
2023/07/18 10:24:20;;;;;;;8.60;1.70;;;23.30;99.90;;;;;;5057719;28;20049;-87
2023/07/18 10:27:07;;;;;;;6.72;1.60;;;23.10;99.90;;;;;;5045200;28;20147;-87
2023/07/18 10:29:38;;;;;;;9.40;1.83;;;23.00;99.90;;;;;;5062078;28;20110;-86
2023/07/18 10:32:05;;;;;;;8.75;1.70;;;22.90;99.90;;;;;;5078596;28;20467;-86
2023/07/18 10:34:38;;;;;;;8.13;1.45;;;22.80;99.90;;;;;;5051614;28;20071;-86
2023/07/18 10:37:07;;;;;;;7.57;1.58;;;22.60;99.90;;;;;;5046494;28;20135;-87
2023/07/18 10:39:48;;;;;;;9.45;2.00;;;22.40;99.90;;;;;;5079379;28;20049;-87
2023/07/18 10:42:22;;;;;;;10.27;2.90;;;22.20;99.90;;;;;;5029758;28;20048;-86
2023/07/18 10:44:48;;;;;;;12.82;2.38;;;22.00;99.90;;;;;;5062670;28;20496;-86
2023/07/18 10:47:19;;;;;;;12.93;2.33;;;21.80;99.90;;;;;;5079489;28;20063;-85
2023/07/18 10:49:47;;;;;;;29.92;2.65;;;21.60;99.90;;;;;;5062913;28;20045;-85
2023/07/18 10:52:13;;;;;;;13.32;2.70;;;21.40;99.90;;;;;;5078609;28;20079;-86
2023/07/18 10:54:50;;;;;;;8.95;2.63;;;21.30;99.90;;;;;;5029016;28;20497;-86
2023/07/18 10:57:16;;;;;;;13.52;2.72;;;21.10;99.90;;;;;;5062554;28;20079;-86
2023/07/18 10:59:46;;;;;;;8.57;2.25;;;21.00;99.90;;;;;;5078761;28;20091;-86
2023/07/18 11:02:12;;;;;;;14.68;2.80;;;21.00;99.90;;;;;;5025254;28;20110;-86
2023/07/18 11:04:38;;;;;;;14.48;2.63;;;21.00;99.90;;;;;;5059056;28;20041;-86
2023/07/18 11:07:04;;;;;;;11.82;2.33;;;21.20;99.90;;;;;;5078096;28;20515;-86
2023/07/18 11:09:31;;;;;;;10.15;2.60;;;21.50;99.90;;;;;;5081693;28;20045;-86
2023/07/18 11:11:57;;;;;;;10.35;1.70;;;21.70;99.90;;;;;;5061260;28;20076;-86
2023/07/18 11:14:23;;;;;;;12.07;2.25;;;22.10;99.90;;;;;;5079706;28;20507;-85
2023/07/18 11:16:49;;;;;;;9.45;1.90;;;22.60;99.90;;;;;;5045006;28;20144;-85
2023/07/18 11:19:15;;;;;;;6.80;1.63;;;23.10;99.90;;;;;;5077185;28;20151;-85
2023/07/18 11:21:41;;;;;;;7.43;1.77;;;23.30;99.90;;;;;;5044900;28;20076;-85
2023/07/18 11:24:08;;;;;;;10.27;1.95;;;23.30;99.90;;;;;;5046782;28;20037;-85
2023/07/18 11:26:33;;;;;;;8.98;1.60;;;23.30;99.90;;;;;;5061128;28;20033;-84
2023/07/18 11:29:00;;;;;;;10.10;1.60;;;23.20;99.90;;;;;;5062097;28;20382;-84
2023/07/18 11:31:41;;;;;;;6.93;1.45;;;23.10;99.90;;;;;;5060746;28;20087;-85
2023/07/18 11:34:07;;;;;;;14.15;1.67;;;23.10;99.90;;;;;;5078003;28;20045;-87
2023/07/18 11:36:37;;;;;;;9.40;1.30;;;23.10;99.90;;;;;;5078901;28;20127;-85
2023/07/18 11:39:15;;;;;;;8.48;1.50;;;23.00;99.90;;;;;;5078726;28;20397;-86
2023/07/18 11:41:41;;;;;;;7.40;1.30;;;23.00;99.90;;;;;;5042254;28;20102;-84
2023/07/18 11:44:08;;;;;;;7.35;1.65;;;23.00;99.90;;;;;;5063279;28;20048;-84
2023/07/18 11:46:35;;;;;;;8.50;1.48;;;23.20;99.90;;;;;;5077951;28;20127;-85
2023/07/18 11:49:01;;;;;;;6.85;1.58;;;23.60;99.90;;;;;;5029990;28;20671;-85
2023/07/18 11:51:27;;;;;;;8.10;1.70;;;24.00;99.90;;;;;;5047660;28;20542;-85
2023/07/18 11:53:54;;;;;;;9.60;1.83;;;24.30;99.90;;;;;;5064243;28;20045;-85
2023/07/18 11:56:21;;;;;;;7.97;1.33;;;24.50;99.90;;;;;;5080562;28;20451;-84
2023/07/18 11:58:47;;;;;;;11.00;2.28;;;24.80;99.90;;;;;;5081957;28;20049;-85
2023/07/18 12:01:12;;;;;;;9.43;1.88;;;25.10;99.90;;;;;;5045993;28;20045;-85
2023/07/18 12:03:38;;;;;;;10.02;1.60;;;25.10;99.90;;;;;;5062915;28;20053;-84
2023/07/18 12:06:04;;;;;;;10.82;2.05;;;25.30;99.90;;;;;;5056985;28;20057;-84
2023/07/18 12:08:31;;;;;;;10.77;1.70;;;25.50;99.90;;;;;;5039407;28;20404;-85
2023/07/18 12:10:57;;;;;;;8.15;1.52;;;25.50;99.90;;;;;;5046947;28;20124;-85
2023/07/18 12:13:23;;;;;;;8.32;2.00;;;25.50;99.90;;;;;;5046979;28;20555;-85
2023/07/18 12:15:48;;;;;;;8.52;1.65;;;25.60;99.90;;;;;;5045301;28;20118;-86
2023/07/18 12:18:14;;;;;;;6.70;1.45;;;25.60;99.90;;;;;;5048359;28;20049;-85
2023/07/18 12:20:40;;;;;;;8.85;1.92;;;25.70;99.90;;;;;;5063639;28;20052;-85
2023/07/18 12:23:06;;;;;;;8.63;1.80;;;25.30;99.90;;;;;;5064614;28;20400;-85
2023/07/18 12:25:31;;;;;;;8.13;1.92;;;24.80;99.90;;;;;;5031562;28;20048;-85
2023/07/18 12:28:01;;;;;;;7.13;1.60;;;24.30;99.90;;;;;;5064679;28;20611;-86
2023/07/18 12:30:27;;;;;;;6.93;2.00;;;23.70;99.90;;;;;;5046847;28;20053;-85
2023/07/18 12:32:54;;;;;;;4.70;1.50;;;23.10;99.90;;;;;;5048692;28;20045;-86
2023/07/18 12:35:20;;;;;;;6.78;1.48;;;22.60;99.90;;;;;;5080196;28;20083;-86
2023/07/18 12:37:46;;;;;;;7.97;1.80;;;22.30;99.90;;;;;;5047219;28;20527;-85